sensor_id;sensor_type;location;lat;lon;timestamp;pressure;altitude;pressure_sealevel;temperature;humidity
4528;BME280;62320;51.520;6.818;2023-05-08T00:02:12;101531.66;;;16.35;89.43
4528;BME280;62320;51.520;6.818;2023-05-08T00:12:14;101536.28;;;16.14;90.82
4528;BME280;62320;51.520;6.818;2023-05-08T00:22:16;101530.84;;;16.33;88.91
4528;BME280;62320;51.520;6.818;2023-05-08T00:32:17;101532.88;;;16.07;90.65
4528;BME280;62320;51.520;6.818;2023-05-08T00:42:19;101525.97;;;16.03;88.58
4528;BME280;62320;51.520;6.818;2023-05-08T00:52:21;101522.38;;;16.12;87.60
4528;BME280;62320;51.520;6.818;2023-05-08T01:02:23;101526.91;;;15.96;87.99
4528;BME280;62320;51.520;6.818;2023-05-08T01:12:49;101530.44;;;15.92;88.67
4528;BME280;62320;51.520;6.818;2023-05-08T01:23:08;101537.47;;;15.81;88.77
4528;BME280;62320;51.520;6.818;2023-05-08T01:33:32;101541.06;;;15.68;88.77
4528;BME280;62320;51.520;6.818;2023-05-08T01:53:50;101545.50;;;15.60;88.58
4528;BME280;62320;51.520;6.818;2023-05-08T02:03:53;101552.53;;;15.47;89.43
4528;BME280;62320;51.520;6.818;2023-05-08T02:13:57;101565.59;;;15.46;88.70
4528;BME280;62320;51.520;6.818;2023-05-08T02:23:59;101571.66;;;15.48;89.33
4528;BME280;62320;51.520;6.818;2023-05-08T02:34:02;101565.69;;;15.26;89.30
4528;BME280;62320;51.520;6.818;2023-05-08T02:44:05;101568.34;;;15.17;90.87
4528;BME280;62320;51.520;6.818;2023-05-08T02:54:14;101571.00;;;15.10;90.06
4528;BME280;62320;51.520;6.818;2023-05-08T03:04:28;101557.03;;;15.18;90.34
4528;BME280;62320;51.520;6.818;2023-05-08T03:14:37;101561.34;;;15.25;89.84
4528;BME280;62320;51.520;6.818;2023-05-08T03:24:43;101553.63;;;15.10;89.74
4528;BME280;62320;51.520;6.818;2023-05-08T03:34:46;101551.94;;;15.03;89.88
4528;BME280;62320;51.520;6.818;2023-05-08T03:44:52;101558.09;;;14.87;90.91
4528;BME280;62320;51.520;6.818;2023-05-08T03:54:54;101563.31;;;14.84;89.82
4528;BME280;62320;51.520;6.818;2023-05-08T04:05:02;101555.53;;;14.75;92.10
4528;BME280;62320;51.520;6.818;2023-05-08T04:15:16;101561.63;;;14.68;92.24
4528;BME280;62320;51.520;6.818;2023-05-08T04:25:20;101562.56;;;14.56;91.00
4528;BME280;62320;51.520;6.818;2023-05-08T04:35:21;101573.84;;;14.60;90.18
4528;BME280;62320;51.520;6.818;2023-05-08T04:45:23;101578.16;;;14.56;93.54
4528;BME280;62320;51.520;6.818;2023-05-08T04:55:25;101579.88;;;14.68;91.03
4528;BME280;62320;51.520;6.818;2023-05-08T05:05:26;101585.06;;;14.71;91.64
4528;BME280;62320;51.520;6.818;2023-05-08T05:15:28;101582.44;;;14.78;92.58
4528;BME280;62320;51.520;6.818;2023-05-08T05:25:29;101590.19;;;14.93;90.37
4528;BME280;62320;51.520;6.818;2023-05-08T05:35:31;101599.63;;;15.14;93.60
4528;BME280;62320;51.520;6.818;2023-05-08T05:45:32;101601.22;;;15.36;94.24
4528;BME280;62320;51.520;6.818;2023-05-08T05:55:34;101605.47;;;15.57;94.44
4528;BME280;62320;51.520;6.818;2023-05-08T06:05:36;101603.44;;;15.97;95.41
4528;BME280;62320;51.520;6.818;2023-05-08T06:15:37;101601.13;;;16.55;95.97
4528;BME280;62320;51.520;6.818;2023-05-08T06:25:39;101596.09;;;17.09;94.71
4528;BME280;62320;51.520;6.818;2023-05-08T06:35:45;101624.56;;;17.31;94.56
4528;BME280;62320;51.520;6.818;2023-05-08T06:45:46;101626.13;;;17.41;94.67
4528;BME280;62320;51.520;6.818;2023-05-08T06:55:48;101634.75;;;17.49;92.65
4528;BME280;62320;51.520;6.818;2023-05-08T07:05:49;101637.72;;;17.84;95.06
4528;BME280;62320;51.520;6.818;2023-05-08T07:15:51;101636.53;;;18.02;92.25
4528;BME280;62320;51.520;6.818;2023-05-08T07:25:52;101644.78;;;18.29;91.14
4528;BME280;62320;51.520;6.818;2023-05-08T07:35:54;101649.75;;;18.92;90.21
4528;BME280;62320;51.520;6.818;2023-05-08T07:45:56;101649.91;;;19.26;88.56
4528;BME280;62320;51.520;6.818;2023-05-08T07:55:58;101646.22;;;19.72;86.15
4528;BME280;62320;51.520;6.818;2023-05-08T08:05:59;101651.28;;;20.15;84.99
4528;BME280;62320;51.520;6.818;2023-05-08T08:16:01;101648.19;;;20.35;84.66
4528;BME280;62320;51.520;6.818;2023-05-08T08:26:04;101643.47;;;20.47;83.92
4528;BME280;62320;51.520;6.818;2023-05-08T08:36:12;101631.25;;;20.77;83.11
4528;BME280;62320;51.520;6.818;2023-05-08T08:46:13;101635.44;;;20.84;83.56
4528;BME280;62320;51.520;6.818;2023-05-08T08:56:16;101639.69;;;20.88;83.30
4528;BME280;62320;51.520;6.818;2023-05-08T09:06:18;101645.94;;;21.15;81.17
4528;BME280;62320;51.520;6.818;2023-05-08T09:16:21;101652.88;;;21.19;77.95
4528;BME280;62320;51.520;6.818;2023-05-08T09:26:40;101659.53;;;21.30;78.25
4528;BME280;62320;51.520;6.818;2023-05-08T09:36:42;101660.34;;;21.33;78.54
4528;BME280;62320;51.520;6.818;2023-05-08T09:46:43;101650.09;;;21.23;77.55
4528;BME280;62320;51.520;6.818;2023-05-08T09:56:46;101656.56;;;21.41;76.80
4528;BME280;62320;51.520;6.818;2023-05-08T10:06:56;101648.91;;;21.33;76.50
4528;BME280;62320;51.520;6.818;2023-05-08T10:16:59;101639.84;;;21.42;76.52
4528;BME280;62320;51.520;6.818;2023-05-08T10:27:19;101644.16;;;21.45;75.03
4528;BME280;62320;51.520;6.818;2023-05-08T10:37:28;101637.13;;;21.73;73.93
4528;BME280;62320;51.520;6.818;2023-05-08T11:08:14;101623.34;;;22.19;71.40
4528;BME280;62320;51.520;6.818;2023-05-08T11:18:17;101615.75;;;22.34;71.72
4528;BME280;62320;51.520;6.818;2023-05-08T11:28:18;101605.13;;;22.37;72.21
4528;BME280;62320;51.520;6.818;2023-05-08T11:38:33;101608.00;;;22.54;69.87
4528;BME280;62320;51.520;6.818;2023-05-08T11:48:36;101606.44;;;22.49;69.12
4528;BME280;62320;51.520;6.818;2023-05-08T11:58:38;101599.47;;;22.48;68.88
4528;BME280;62320;51.520;6.818;2023-05-08T12:08:39;101599.78;;;22.39;67.41
4528;BME280;62320;51.520;6.818;2023-05-08T12:18:41;101597.09;;;22.40;67.95
4528;BME280;62320;51.520;6.818;2023-05-08T12:28:44;101602.50;;;22.37;68.19
4528;BME280;62320;51.520;6.818;2023-05-08T12:38:46;101600.66;;;22.64;66.38
4528;BME280;62320;51.520;6.818;2023-05-08T12:48:48;101590.97;;;22.88;65.55
4528;BME280;62320;51.520;6.818;2023-05-08T12:58:49;101579.56;;;22.87;66.76
4528;BME280;62320;51.520;6.818;2023-05-08T13:08:54;101577.56;;;22.94;69.58
4528;BME280;62320;51.520;6.818;2023-05-08T13:18:55;101566.66;;;23.03;68.01
4528;BME280;62320;51.520;6.818;2023-05-08T13:28:57;101558.03;;;23.21;68.29
4528;BME280;62320;51.520;6.818;2023-05-08T13:38:59;101546.00;;;23.14;67.85
4528;BME280;62320;51.520;6.818;2023-05-08T13:49:00;101531.84;;;22.93;67.70
4528;BME280;62320;51.520;6.818;2023-05-08T13:59:02;101527.09;;;23.03;68.91
4528;BME280;62320;51.520;6.818;2023-05-08T14:09:03;101512.94;;;22.82;68.65
4528;BME280;62320;51.520;6.818;2023-05-08T14:19:04;101510.22;;;22.85;65.74
4528;BME280;62320;51.520;6.818;2023-05-08T14:29:06;101511.34;;;22.78;64.46
4528;BME280;62320;51.520;6.818;2023-05-08T14:39:08;101504.22;;;23.03;64.94
4528;BME280;62320;51.520;6.818;2023-05-08T14:49:09;101515.66;;;23.02;64.26
4528;BME280;62320;51.520;6.818;2023-05-08T14:59:12;101511.06;;;23.07;63.66
4528;BME280;62320;51.520;6.818;2023-05-08T15:09:14;101509.41;;;23.05;62.36
4528;BME280;62320;51.520;6.818;2023-05-08T15:19:18;101498.47;;;22.92;64.58
4528;BME280;62320;51.520;6.818;2023-05-08T15:29:20;101497.84;;;22.86;65.54
4528;BME280;62320;51.520;6.818;2023-05-08T15:39:21;101507.75;;;22.81;64.79
4528;BME280;62320;51.520;6.818;2023-05-08T15:49:22;101496.44;;;22.77;65.00
4528;BME280;62320;51.520;6.818;2023-05-08T15:59:26;101498.00;;;22.58;64.24
4528;BME280;62320;51.520;6.818;2023-05-08T16:09:28;101494.25;;;22.42;63.04
4528;BME280;62320;51.520;6.818;2023-05-08T16:19:29;101488.00;;;22.21;64.50
4528;BME280;62320;51.520;6.818;2023-05-08T16:29:31;101477.81;;;22.12;65.86
4528;BME280;62320;51.520;6.818;2023-05-08T16:39:33;101474.53;;;22.06;66.24
4528;BME280;62320;51.520;6.818;2023-05-08T16:49:34;101472.16;;;21.98;65.86
4528;BME280;62320;51.520;6.818;2023-05-08T16:59:36;101469.28;;;21.79;66.98
4528;BME280;62320;51.520;6.818;2023-05-08T17:09:37;101469.19;;;21.58;68.76
4528;BME280;62320;51.520;6.818;2023-05-08T17:19:39;101483.06;;;21.37;69.21
4528;BME280;62320;51.520;6.818;2023-05-08T17:29:40;101488.25;;;21.12;71.97
4528;BME280;62320;51.520;6.818;2023-05-08T17:39:42;101486.09;;;20.95;72.49
4528;BME280;62320;51.520;6.818;2023-05-08T17:49:43;101493.69;;;20.77;74.65
4528;BME280;62320;51.520;6.818;2023-05-08T17:59:45;101489.63;;;20.67;76.35
4528;BME280;62320;51.520;6.818;2023-05-08T18:09:46;101489.09;;;20.55;77.38
4528;BME280;62320;51.520;6.818;2023-05-08T18:19:48;101490.88;;;20.55;76.49
4528;BME280;62320;51.520;6.818;2023-05-08T18:29:49;101490.47;;;20.39;78.91
4528;BME280;62320;51.520;6.818;2023-05-08T18:39:51;101490.72;;;20.30;77.53
4528;BME280;62320;51.520;6.818;2023-05-08T18:49:52;101483.94;;;20.20;78.64
4528;BME280;62320;51.520;6.818;2023-05-08T18:59:54;101478.97;;;20.11;79.23
4528;BME280;62320;51.520;6.818;2023-05-08T19:09:55;101476.72;;;19.98;79.50
4528;BME280;62320;51.520;6.818;2023-05-08T19:19:57;101481.47;;;19.83;81.51
4528;BME280;62320;51.520;6.818;2023-05-08T19:29:58;101468.69;;;19.71;80.25
4528;BME280;62320;51.520;6.818;2023-05-08T19:39:59;101462.75;;;19.65;79.65
4528;BME280;62320;51.520;6.818;2023-05-08T19:50:01;101471.88;;;19.50;82.39
4528;BME280;62320;51.520;6.818;2023-05-08T20:00:04;101468.66;;;19.38;82.53
4528;BME280;62320;51.520;6.818;2023-05-08T20:10:06;101468.03;;;19.28;82.16
4528;BME280;62320;51.520;6.818;2023-05-08T20:20:08;101458.69;;;19.16;84.00
4528;BME280;62320;51.520;6.818;2023-05-08T20:30:10;101459.91;;;19.03;83.78
4528;BME280;62320;51.520;6.818;2023-05-08T20:40:12;101460.13;;;18.93;84.45
4528;BME280;62320;51.520;6.818;2023-05-08T20:50:14;101448.88;;;18.89;84.73
4528;BME280;62320;51.520;6.818;2023-05-08T21:00:17;101447.44;;;18.76;84.72
4528;BME280;62320;51.520;6.818;2023-05-08T21:10:18;101430.22;;;18.65;84.49
4528;BME280;62320;51.520;6.818;2023-05-08T21:20:20;101439.13;;;18.56;84.61
4528;BME280;62320;51.520;6.818;2023-05-08T21:30:21;101439.31;;;18.47;85.26
4528;BME280;62320;51.520;6.818;2023-05-08T21:40:23;101429.03;;;18.38;84.81
4528;BME280;62320;51.520;6.818;2023-05-08T21:50:25;101425.00;;;18.22;86.41
4528;BME280;62320;51.520;6.818;2023-05-08T22:00:28;101417.41;;;18.10;86.83
4528;BME280;62320;51.520;6.818;2023-05-08T22:10:29;101407.84;;;18.09;85.83
4528;BME280;62320;51.520;6.818;2023-05-08T22:20:32;101401.03;;;18.00;86.67
4528;BME280;62320;51.520;6.818;2023-05-08T22:30:33;101390.84;;;17.87;88.31
4528;BME280;62320;51.520;6.818;2023-05-08T22:40:35;101367.44;;;17.80;87.49
4528;BME280;62320;51.520;6.818;2023-05-08T22:50:36;101374.69;;;17.66;88.49
4528;BME280;62320;51.520;6.818;2023-05-08T23:00:38;101359.13;;;17.59;88.56
4528;BME280;62320;51.520;6.818;2023-05-08T23:10:39;101348.81;;;17.51;90.37
4528;BME280;62320;51.520;6.818;2023-05-08T23:20:41;101335.03;;;17.40;89.18
4528;BME280;62320;51.520;6.818;2023-05-08T23:30:42;101322.22;;;17.27;91.12
4528;BME280;62320;51.520;6.818;2023-05-08T23:40:44;101304.97;;;17.18;90.99
4528;BME280;62320;51.520;6.818;2023-05-08T23:50:46;101307.50;;;17.23;89.92
